Time;durP1;ratioP1;P1;durP2;ratioP2;P2;SDS_P1;SDS_P2;PMS_P1;PMS_P2;Temp;Humidity;BMP_temperature;BMP_pressure;BME280_temperature;BME280_humidity;BME280_pressure;Samples;Min_cycle;Max_cycle;Signal;HPM_P1;HPM_P2
2022/03/03 00:05:38;;;;;;;4.47;3.92;;;;;;;19.87;35.36;97135.13;10511068;28;20079;-55
2022/03/03 00:10:58;;;;;;;5.47;3.90;;;;;;;19.86;35.43;97128.16;10504393;28;20048;-54
2022/03/03 00:16:17;;;;;;;6.22;3.95;;;;;;;19.84;35.29;97128.47;10521183;28;20037;-56
2022/03/03 00:21:37;;;;;;;5.45;4.05;;;;;;;19.83;35.25;97126.06;10505278;28;20056;-55
2022/03/03 00:26:56;;;;;;;5.35;4.18;;;;;;;19.79;35.17;97123.22;10517104;28;20056;-55
2022/03/03 00:32:16;;;;;;;5.68;3.95;;;;;;;19.78;35.22;97118.94;10530405;28;20058;-55
2022/03/03 00:37:35;;;;;;;5.03;3.85;;;;;;;19.77;35.25;97116.53;10509595;28;20106;-55
2022/03/03 00:42:55;;;;;;;4.10;3.70;;;;;;;19.75;35.46;97114.16;10510040;28;20520;-56
2022/03/03 00:48:14;;;;;;;5.00;3.95;;;;;;;19.74;35.10;97112.56;10517908;28;20047;-55
2022/03/03 00:53:36;;;;;;;4.72;3.90;;;;;;;19.71;35.25;97107.75;10524872;28;20132;-55
2022/03/03 00:58:55;;;;;;;4.35;3.47;;;;;;;19.69;35.18;97102.66;10507640;28;20048;-55
2022/03/03 01:04:15;;;;;;;5.00;3.85;;;;;;;19.69;34.93;97099.16;10525607;28;20480;-55
2022/03/03 01:09:34;;;;;;;4.43;4.03;;;;;;;19.67;34.93;97093.28;10511304;28;20105;-55
2022/03/03 01:14:54;;;;;;;4.15;3.63;;;;;;;19.64;34.90;97081.22;10517130;28;20056;-56
2022/03/03 01:20:13;;;;;;;5.45;3.97;;;;;;;19.64;35.08;97080.41;10514579;28;20487;-55
2022/03/03 01:25:33;;;;;;;4.10;3.70;;;;;;;19.61;34.95;97079.13;10504967;28;20432;-55
2022/03/03 01:30:52;;;;;;;5.13;3.80;;;;;;;19.59;34.84;97072.47;10510915;28;20059;-55
2022/03/03 01:36:12;;;;;;;4.22;3.80;;;;;;;19.58;35.02;97070.84;10514533;28;20041;-56
2022/03/03 01:41:32;;;;;;;4.60;4.03;;;;;;;19.56;34.79;97069.28;10501535;28;20068;-55
2022/03/03 01:46:55;;;;;;;4.72;4.32;;;;;;;19.55;34.91;97070.38;10503263;28;20052;-52
2022/03/03 01:52:15;;;;;;;4.45;4.05;;;;;;;19.52;34.93;97076.44;10506684;28;20051;-55
2022/03/03 01:57:34;;;;;;;5.60;4.00;;;;;;;19.51;34.65;97076.75;10514157;28;20040;-55
2022/03/03 02:02:54;;;;;;;4.80;4.07;;;;;;;19.50;34.83;97072.44;10513383;28;20500;-55
2022/03/03 02:08:13;;;;;;;4.70;3.70;;;;;;;19.46;34.71;97058.75;10500026;28;20064;-55
2022/03/03 02:13:34;;;;;;;4.30;3.90;;;;;;;19.46;34.80;97064.16;10490690;28;20037;-56
2022/03/03 02:18:53;;;;;;;4.70;3.83;;;;;;;19.44;34.73;97061.00;10522175;28;20483;-55
2022/03/03 02:24:13;;;;;;;4.53;4.10;;;;;;;19.41;34.73;97053.53;10515355;28;20048;-55
2022/03/03 02:29:33;;;;;;;4.28;3.88;;;;;;;19.39;34.70;97044.94;10523387;28;20044;-55
2022/03/03 02:34:53;;;;;;;4.95;4.00;;;;;;;19.38;34.72;97035.25;10521084;28;20127;-55
2022/03/03 02:40:20;;;;;;;5.80;4.20;;;;;;;19.36;34.63;97030.16;10527834;28;20055;-56
2022/03/03 02:45:39;;;;;;;4.63;3.85;;;;;;;19.35;34.61;97019.69;10514582;28;20052;-55
2022/03/03 02:50:59;;;;;;;5.20;3.92;;;;;;;19.32;34.53;97020.31;10520830;28;20494;-55
2022/03/03 02:56:19;;;;;;;4.88;3.80;;;;;;;19.31;34.52;97013.31;10502844;28;20121;-55
2022/03/03 03:01:38;;;;;;;5.07;4.30;;;;;;;19.29;34.50;97019.03;10520382;28;20113;-55
2022/03/03 03:06:58;;;;;;;4.90;4.03;;;;;;;19.28;34.55;97008.53;10518433;28;20051;-55
2022/03/03 03:12:17;;;;;;;5.82;4.50;;;;;;;19.26;34.48;97008.06;10516135;28;20496;-55
2022/03/03 03:17:36;;;;;;;4.70;4.18;;;;;;;19.23;34.52;96996.00;10527991;28;20044;-56
2022/03/03 03:22:56;;;;;;;4.25;3.85;;;;;;;19.22;34.74;96989.00;10517142;28;20400;-55
2022/03/03 03:28:17;;;;;;;4.45;4.05;;;;;;;19.21;34.78;96986.59;10524423;28;20394;-55
2022/03/03 03:33:36;;;;;;;4.38;3.97;;;;;;;19.19;34.68;96983.44;10532037;28;20055;-55
2022/03/03 03:38:57;;;;;;;5.00;3.97;;;;;;;19.17;34.58;96989.16;10527402;28;20064;-55
2022/03/03 03:44:16;;;;;;;6.13;4.18;;;;;;;19.14;34.49;96984.38;10530172;28;20071;-56
2022/03/03 03:49:35;;;;;;;5.25;4.30;;;;;;;19.12;34.51;96973.13;10518416;28;20079;-55
2022/03/03 03:54:55;;;;;;;5.75;4.18;;;;;;;19.11;34.43;96968.81;10483106;28;20067;-55
2022/03/03 04:00:15;;;;;;;5.75;4.40;;;;;;;19.09;34.61;96966.44;10497072;28;20055;-55
2022/03/03 04:05:35;;;;;;;4.80;3.97;;;;;;;19.07;34.44;96965.97;10524725;28;20048;-55
2022/03/03 04:10:54;;;;;;;4.97;4.38;;;;;;;19.04;34.60;96963.91;10513361;28;20056;-55
2022/03/03 04:16:13;;;;;;;4.80;4.30;;;;;;;19.04;34.46;96963.91;10508368;28;20404;-55
2022/03/03 04:21:32;;;;;;;4.70;4.22;;;;;;;19.03;34.35;96958.81;10517527;28;20479;-55
2022/03/03 04:26:52;;;;;;;6.85;4.15;;;;;;;19.01;34.49;96955.63;10523691;28;20054;-55
2022/03/03 04:32:11;;;;;;;4.72;4.22;;;;;;;18.99;34.60;96953.25;10517120;28;20052;-55
2022/03/03 04:37:31;;;;;;;4.90;4.40;;;;;;;18.98;34.47;96946.25;10535213;28;20109;-55
2022/03/03 04:42:51;;;;;;;4.95;4.43;;;;;;;18.95;34.60;96953.09;10524227;28;20392;-55
2022/03/03 04:48:10;;;;;;;5.43;4.30;;;;;;;18.95;34.47;96952.28;10532455;28;20672;-55
2022/03/03 04:53:29;;;;;;;5.00;4.50;;;;;;;18.93;34.56;96939.13;10526402;28;20419;-55
2022/03/03 04:58:49;;;;;;;4.88;4.43;;;;;;;18.94;34.70;96929.13;10536232;28;20056;-55
2022/03/03 05:04:09;;;;;;;5.25;4.60;;;;;;;18.94;34.56;96929.13;10522237;28;20078;-53
2022/03/03 05:09:28;;;;;;;4.85;4.20;;;;;;;18.95;34.42;96936.91;10521316;28;20518;-56
2022/03/03 05:14:47;;;;;;;4.85;4.30;;;;;;;18.96;34.90;96927.69;10526793;28;20052;-55
2022/03/03 05:20:08;;;;;;;4.70;4.18;;;;;;;18.99;34.95;96920.06;10525555;28;20522;-55
2022/03/03 05:25:27;;;;;;;4.80;3.95;;;;;;;19.00;35.14;96932.44;10542897;28;20548;-55
2022/03/03 05:30:46;;;;;;;5.07;4.25;;;;;;;19.00;35.10;96919.75;10529365;28;20056;-55
2022/03/03 05:36:08;;;;;;;4.68;3.92;;;;;;;19.01;35.46;96926.72;10499153;28;20059;-57
2022/03/03 05:41:27;;;;;;;4.38;3.97;;;;;;;19.02;35.51;96933.72;10518272;28;20090;-57
2022/03/03 05:46:47;;;;;;;5.05;4.30;;;;;;;19.02;35.51;96933.72;10518169;28;20040;-58
2022/03/03 05:52:09;;;;;;;5.22;4.03;;;;;;;19.06;36.07;96931.19;10535077;28;20048;-57
2022/03/03 05:57:34;;;;;;;4.68;4.18;;;;;;;19.07;36.32;96943.56;10532560;28;20056;-58
2022/03/03 06:02:54;;;;;;;8.45;4.53;;;;;;;19.10;36.25;96951.03;10523962;28;20475;-57
2022/03/03 06:08:20;;;;;;;11.18;5.30;;;;;;;19.11;36.51;96939.91;10525456;28;20044;-57
2022/03/03 06:13:47;;;;;;;9.80;5.63;;;;;;;19.16;36.28;96950.53;10517206;28;20534;-57
2022/03/03 06:19:06;;;;;;;14.18;5.85;;;;;;;19.21;36.29;96948.78;10517915;28;20060;-57
2022/03/03 06:24:26;;;;;;;14.15;5.93;;;;;;;19.24;36.31;96950.88;10512131;28;20045;-57
2022/03/03 06:29:45;;;;;;;15.07;5.90;;;;;;;19.27;36.26;96948.34;10529875;28;20055;-57
2022/03/03 06:35:05;;;;;;;11.30;5.47;;;;;;;19.31;36.42;96943.09;10537064;28;20036;-57
2022/03/03 06:40:24;;;;;;;13.85;5.95;;;;;;;19.36;36.50;96941.00;10524459;28;20491;-57
2022/03/03 06:45:43;;;;;;;13.30;6.13;;;;;;;19.42;36.47;96935.44;10524904;28;20095;-58
2022/03/03 06:51:04;;;;;;;12.93;6.28;;;;;;;19.45;36.48;96926.72;10516538;28;20502;-57
2022/03/03 06:56:25;;;;;;;12.00;6.13;;;;;;;19.48;36.38;96924.16;10515946;28;20056;-57
2022/03/03 07:01:49;;;;;;;13.10;5.88;;;;;;;19.51;36.29;96923.50;10517844;28;20732;-57
2022/03/03 07:07:09;;;;;;;11.95;5.82;;;;;;;19.52;36.31;96914.31;10532585;28;20074;-56
2022/03/03 07:12:30;;;;;;;11.80;6.28;;;;;;;19.53;36.31;96907.78;10509316;28;20044;-57
2022/03/03 07:17:58;;;;;;;9.80;6.00;;;;;;;19.55;36.42;96902.84;10527960;28;20048;-56
2022/03/03 07:23:27;;;;;;;10.95;6.00;;;;;;;19.59;36.22;96910.31;10499401;28;20554;-57
2022/03/03 07:28:52;;;;;;;9.15;5.93;;;;;;;19.58;36.01;96898.69;10517901;28;20441;-57
2022/03/03 07:34:13;;;;;;;10.27;5.80;;;;;;;19.60;36.18;96896.50;10510917;28;20616;-57
2022/03/03 07:39:42;;;;;;;11.02;5.75;;;;;;;19.61;36.18;96903.47;10493094;28;20090;-57
2022/03/03 07:45:03;;;;;;;11.02;5.47;;;;;;;19.63;36.06;96903.16;10515028;28;20044;-57
2022/03/03 07:50:27;;;;;;;9.18;6.22;;;;;;;19.64;36.02;96897.44;10498099;28;20049;-57
2022/03/03 07:55:50;;;;;;;10.52;5.80;;;;;;;19.65;36.02;96899.00;10539466;28;20105;-57
2022/03/03 08:01:11;;;;;;;8.98;5.72;;;;;;;19.66;35.95;96911.41;10529903;28;20059;-57
2022/03/03 08:06:32;;;;;;;10.52;5.57;;;;;;;19.66;36.14;96913.31;10502275;28;20540;-57
2022/03/03 08:11:53;;;;;;;10.88;6.07;;;;;;;19.67;35.98;96902.19;10505366;28;20068;-57
2022/03/03 08:17:15;;;;;;;13.52;6.82;;;;;;;19.68;35.85;96905.66;10512586;28;20063;-57
2022/03/03 08:22:34;;;;;;;15.20;6.43;;;;;;;19.68;36.00;96911.06;10526734;28;20402;-57
2022/03/03 08:27:54;;;;;;;11.90;6.53;;;;;;;19.69;36.04;96921.56;10521996;28;20056;-57
2022/03/03 08:33:20;;;;;;;11.95;6.47;;;;;;;19.70;36.14;96915.06;10540639;28;20048;-56
2022/03/03 08:38:45;;;;;;;12.07;6.30;;;;;;;19.69;36.02;96928.88;10504656;28;20056;-57
2022/03/03 08:44:07;;;;;;;13.63;6.57;;;;;;;19.69;35.95;96921.56;10510282;28;20094;-57
2022/03/03 08:49:36;;;;;;;12.02;6.68;;;;;;;19.70;36.08;96928.56;10526357;28;20063;-57
2022/03/03 08:54:55;;;;;;;;;;;;;;;19.71;36.63;96932.06;10528534;28;20094;-57
2022/03/03 09:00:16;;;;;;;12.93;6.53;;;;;;;19.70;36.58;96927.78;10519254;28;19920;-57
2022/03/03 09:05:36;;;;;;;11.70;6.60;;;;;;;19.69;36.70;96926.19;10518224;28;20059;-57
2022/03/03 09:10:55;;;;;;;11.55;6.60;;;;;;;19.71;36.74;96918.53;10519060;28;20079;-57
2022/03/03 09:16:17;;;;;;;11.18;6.03;;;;;;;19.70;36.61;96906.94;10529191;28;20036;-58
2022/03/03 09:21:36;;;;;;;10.77;5.90;;;;;;;19.70;36.64;96906.16;10525512;28;20127;-57
2022/03/03 09:26:56;;;;;;;10.88;5.95;;;;;;;19.68;36.38;96901.06;10533098;28;20122;-57
2022/03/03 09:32:16;;;;;;;10.93;5.93;;;;;;;19.69;36.50;96899.16;10535220;28;20052;-57
2022/03/03 09:37:36;;;;;;;11.25;6.00;;;;;;;19.68;36.46;96897.56;10516950;28;20052;-57
2022/03/03 09:43:04;;;;;;;8.48;5.47;;;;;;;19.67;36.47;96895.97;10518430;28;20040;-57
2022/03/03 09:48:23;;;;;;;8.15;5.30;;;;;;;19.67;36.27;96896.78;10498612;28;20109;-57
2022/03/03 09:53:43;;;;;;;8.35;5.03;;;;;;;19.67;36.23;96895.97;10498413;28;20574;-57
2022/03/03 09:59:04;;;;;;;9.40;5.35;;;;;;;19.67;36.39;96890.56;10497916;28;20049;-57
2022/03/03 10:04:24;;;;;;;8.60;5.28;;;;;;;19.65;36.20;96882.00;10498031;28;20049;-57
2022/03/03 10:09:59;;;;;;;8.55;5.32;;;;;;;19.66;36.45;96883.56;10498187;28;20125;-57
2022/03/03 10:15:20;;;;;;;10.60;5.25;;;;;;;19.65;36.35;96882.00;10497470;28;20056;-57
2022/03/03 10:20:55;;;;;;;10.05;5.47;;;;;;;19.64;36.42;96885.81;10506234;28;20044;-57
2022/03/03 10:26:15;;;;;;;7.07;5.18;;;;;;;19.63;36.40;96887.72;10502169;28;20044;-57
2022/03/03 10:31:44;;;;;;;9.10;5.28;;;;;;;19.62;36.45;96888.84;10498549;28;20515;-57
2022/03/03 10:37:07;;;;;;;7.47;5.15;;;;;;;19.61;36.22;96889.97;10498248;28;20147;-57
2022/03/03 10:42:27;;;;;;;7.78;5.00;;;;;;;19.61;36.34;96887.25;10497340;28;20535;-57
2022/03/03 10:47:58;;;;;;;7.78;4.47;;;;;;;19.60;36.22;96888.38;10497194;28;20059;-58
2022/03/03 10:53:19;;;;;;;6.38;4.53;;;;;;;19.60;36.25;96891.09;10496698;28;20056;-57
2022/03/03 10:58:43;;;;;;;6.93;4.80;;;;;;;19.59;36.25;96899.50;10496492;28;20499;-57
2022/03/03 11:04:03;;;;;;;9.00;4.82;;;;;;;19.58;36.24;96877.06;10511203;28;20051;-57
2022/03/03 11:09:23;;;;;;;7.32;4.47;;;;;;;19.57;36.29;96880.91;10497525;28;20061;-57
2022/03/03 11:14:43;;;;;;;7.40;4.85;;;;;;;19.56;36.21;96890.13;10502115;28;20582;-57
2022/03/03 11:20:09;;;;;;;7.68;5.00;;;;;;;19.55;36.19;96877.75;10515829;28;20044;-57
2022/03/03 11:25:36;;;;;;;6.55;4.72;;;;;;;19.55;36.38;96872.34;10495923;28;20048;-58
2022/03/03 11:30:58;;;;;;;6.93;4.60;;;;;;;19.53;36.20;96864.53;10504176;28;20562;-57
2022/03/03 11:36:20;;;;;;;6.30;4.40;;;;;;;19.52;36.19;96851.34;10505324;28;20044;-57
2022/03/03 11:41:47;;;;;;;5.45;4.20;;;;;;;19.51;36.25;96847.84;10504442;28;20110;-57
2022/03/03 11:47:30;;;;;;;5.38;3.95;;;;;;;19.51;36.26;96844.38;10512339;28;20040;-57
2022/03/03 11:53:14;;;;;;;5.32;4.07;;;;;;;19.49;36.35;96852.78;10507431;28;20052;-57
2022/03/03 11:58:41;;;;;;;5.32;4.00;;;;;;;19.49;36.34;96833.88;10504492;28;20486;-57
2022/03/03 12:04:03;;;;;;;6.13;4.03;;;;;;;19.49;36.21;96831.19;10502718;28;20052;-56
2022/03/03 12:09:30;;;;;;;5.63;3.80;;;;;;;19.48;36.39;96823.38;10505493;28;20037;-57
2022/03/03 12:14:54;;;;;;;7.10;4.10;;;;;;;19.47;36.35;96819.13;10502229;28;20059;-58
2022/03/03 12:20:35;;;;;;;5.70;3.70;;;;;;;19.46;36.34;96814.81;10503798;28;20105;-57
2022/03/03 12:25:58;;;;;;;6.13;4.05;;;;;;;19.45;36.19;96818.66;10502201;28;20067;-57
2022/03/03 12:31:22;;;;;;;5.57;3.63;;;;;;;19.43;36.41;96805.44;10501792;28;20048;-57
2022/03/03 12:36:44;;;;;;;5.50;3.78;;;;;;;19.43;36.47;96801.97;10501661;28;20048;-57
2022/03/03 12:42:05;;;;;;;4.75;3.83;;;;;;;19.43;36.35;96799.25;10535584;28;20062;-57
2022/03/03 12:47:40;;;;;;;4.50;3.38;;;;;;;19.42;36.39;96800.38;10520017;28;20515;-57
2022/03/03 12:53:08;;;;;;;5.15;3.88;;;;;;;19.40;36.30;96792.59;10514218;28;20051;-57
2022/03/03 12:58:31;;;;;;;5.15;3.80;;;;;;;19.40;36.32;96795.28;10524580;28;20052;-57
2022/03/03 13:03:50;;;;;;;5.68;3.72;;;;;;;19.39;36.44;96792.94;10536656;28;20052;-57
2022/03/03 13:09:11;;;;;;;5.97;4.03;;;;;;;19.38;36.29;96791.31;10520232;28;20055;-57
2022/03/03 13:14:30;;;;;;;4.32;3.30;;;;;;;19.37;36.15;96790.53;10524362;28;20048;-57
2022/03/03 13:19:50;;;;;;;4.35;3.50;;;;;;;19.38;36.38;96796.72;10528220;28;20056;-57
2022/03/03 13:25:19;;;;;;;5.90;3.83;;;;;;;19.35;36.33;96792.78;10530899;28;20055;-57
2022/03/03 13:30:49;;;;;;;4.80;3.13;;;;;;;19.35;36.21;96790.84;10503872;28;20105;-57
2022/03/03 13:36:17;;;;;;;4.78;3.38;;;;;;;19.33;36.40;96782.28;10520733;28;20052;-57
2022/03/03 13:41:38;;;;;;;4.55;3.33;;;;;;;19.34;36.38;96785.78;10537063;28;20097;-57
2022/03/03 13:47:03;;;;;;;4.63;3.10;;;;;;;19.32;36.47;96782.59;10537274;28;20059;-57
2022/03/03 13:52:36;;;;;;;4.50;3.28;;;;;;;19.32;36.36;96779.91;10501620;28;20451;-57
2022/03/03 13:57:56;;;;;;;5.25;3.60;;;;;;;19.32;36.46;96771.78;10523994;28;20078;-57
2022/03/03 14:03:17;;;;;;;5.68;3.40;;;;;;;19.30;36.37;96771.31;10535065;28;20105;-57
2022/03/03 14:08:44;;;;;;;4.53;3.30;;;;;;;19.30;36.29;96768.63;10534520;28;20052;-57
2022/03/03 14:14:05;;;;;;;4.57;3.22;;;;;;;19.28;36.51;96771.66;10534130;28;20483;-57
2022/03/03 14:19:24;;;;;;;5.50;3.40;;;;;;;19.28;36.54;96766.25;10516451;28;20484;-58
2022/03/03 14:24:48;;;;;;;3.85;3.17;;;;;;;19.28;36.44;96760.84;10517868;28;20109;-57
2022/03/03 14:30:08;;;;;;;4.15;3.10;;;;;;;19.28;36.62;96760.06;10520718;28;20063;-57
2022/03/03 14:35:27;;;;;;;5.13;3.28;;;;;;;19.27;36.57;96755.78;10533483;28;20059;-57
2022/03/03 14:40:48;;;;;;;4.35;3.22;;;;;;;19.27;36.73;96756.56;10535408;28;20048;-57
2022/03/03 14:46:08;;;;;;;4.05;3.08;;;;;;;19.27;36.69;96753.09;10532025;28;20117;-57
2022/03/03 14:51:29;;;;;;;4.63;3.00;;;;;;;19.26;36.71;96752.28;10516725;28;20045;-57
2022/03/03 14:56:49;;;;;;;3.88;2.88;;;;;;;19.26;36.90;96756.88;10533077;28;20059;-57
2022/03/03 15:02:09;;;;;;;4.47;3.20;;;;;;;19.26;36.90;96752.28;10522455;28;20082;-57
2022/03/03 15:07:28;;;;;;;4.00;2.85;;;;;;;19.27;37.09;96763.88;10496626;28;20059;-57
2022/03/03 15:12:48;;;;;;;3.47;2.75;;;;;;;19.28;37.23;96762.75;10499337;28;20518;-57
2022/03/03 15:18:07;;;;;;;3.90;3.25;;;;;;;19.28;36.96;96749.25;10514737;28;20063;-57
2022/03/03 15:23:27;;;;;;;4.43;3.15;;;;;;;19.26;37.02;96756.88;10519358;28;20120;-57
2022/03/03 15:28:47;;;;;;;4.15;2.80;;;;;;;19.24;36.91;96765.31;10515438;28;20063;-57
2022/03/03 15:39:45;;;;;;;3.92;2.88;;;;;;;19.22;36.84;96769.44;10513947;28;20776;-57
2022/03/03 15:45:05;;;;;;;8.00;5.40;;;;;;;19.16;32.22;96766.13;10492429;28;20090;-54
2022/03/03 15:50:24;;;;;;;9.93;8.55;;;;;;;18.79;25.88;96765.69;10518606;28;20058;-56
2022/03/03 15:55:44;;;;;;;7.43;5.28;;;;;;;18.78;31.17;96764.91;10512492;28;20053;-54
2022/03/03 16:01:03;;;;;;;6.07;5.30;;;;;;;18.85;31.71;96772.53;10491556;28;20487;-55
2022/03/03 16:06:25;;;;;;;7.47;5.25;;;;;;;18.92;31.99;96766.66;10534232;28;20048;-56
2022/03/03 16:11:46;;;;;;;7.47;5.18;;;;;;;18.94;32.67;96767.91;10513527;28;20059;-53
2022/03/03 16:17:06;;;;;;;6.47;4.93;;;;;;;18.97;33.13;96769.19;10526910;28;20028;-54
2022/03/03 16:22:25;;;;;;;5.93;4.22;;;;;;;18.99;33.90;96775.06;10515279;28;20063;-56
2022/03/03 16:27:45;;;;;;;5.45;4.20;;;;;;;19.00;34.78;96776.66;10515807;28;20056;-56
2022/03/03 16:33:05;;;;;;;6.43;4.10;;;;;;;19.02;35.22;96779.03;10532258;28;20036;-55
2022/03/03 16:38:24;;;;;;;6.20;3.88;;;;;;;19.03;35.69;96789.50;10525386;28;20102;-57
2022/03/03 16:43:44;;;;;;;6.47;4.03;;;;;;;19.03;35.86;96788.72;10519600;28;20055;-57
2022/03/03 16:49:03;;;;;;;4.90;3.70;;;;;;;19.01;35.94;96799.03;10527044;28;20043;-57
2022/03/03 16:54:23;;;;;;;4.75;3.33;;;;;;;19.01;36.12;96797.13;10526675;28;20072;-56
2022/03/03 16:59:42;;;;;;;4.65;3.50;;;;;;;19.00;36.44;96794.75;10513029;28;20431;-55
2022/03/03 17:05:03;;;;;;;9.00;4.90;;;;;;;19.00;37.21;96802.88;10522630;28;20442;-58
2022/03/03 17:10:22;;;;;;;9.50;5.25;;;;;;;19.00;38.18;96809.06;10503245;28;20661;-55
2022/03/03 17:15:42;;;;;;;11.70;6.10;;;;;;;19.01;38.66;96809.84;10512772;28;20052;-58
2022/03/03 17:21:01;;;;;;;19.48;7.75;;;;;;;19.00;39.58;96814.44;10518205;28;20073;-52
2022/03/03 17:26:21;;;;;;;20.83;8.70;;;;;;;19.01;40.41;96810.63;10502739;28;20405;-55
2022/03/03 17:31:43;;;;;;;26.05;11.35;;;;;;;19.00;41.75;96822.53;10520856;28;20052;-57
2022/03/03 17:37:03;;;;;;;21.88;9.43;;;;;;;19.00;42.04;96827.94;10505196;28;20059;-55
2022/03/03 17:42:23;;;;;;;30.80;8.50;;;;;;;19.00;41.69;96827.94;10504797;28;20649;-58
2022/03/03 17:47:43;;;;;;;35.47;14.05;;;;;;;19.00;42.75;96824.47;10516963;28;20054;-61
2022/03/03 17:53:03;;;;;;;44.67;16.67;;;;;;;19.01;43.86;96832.22;10519808;28;20066;-59
2022/03/03 17:58:22;;;;;;;61.92;21.52;;;;;;;19.01;45.02;96832.22;10523727;28;20051;-60
2022/03/03 18:03:42;;;;;;;66.55;22.65;;;;;;;19.01;45.73;96840.31;10533094;28;20434;-58
2022/03/03 18:09:04;;;;;;;59.20;19.58;;;;;;;19.01;45.04;96848.41;10523155;28;20052;-59
2022/03/03 18:14:23;;;;;;;62.47;20.23;;;;;;;19.02;44.63;96849.22;10515469;28;20394;-57
2022/03/03 18:19:43;;;;;;;68.38;21.83;;;;;;;19.02;46.29;96855.41;10507040;28;20048;-56
2022/03/03 18:25:03;;;;;;;74.30;23.63;;;;;;;19.02;46.69;96855.41;10487202;28;20055;-58
2022/03/03 18:30:22;;;;;;;78.20;26.30;;;;;;;19.01;47.30;96848.41;10497641;28;20053;-60
2022/03/03 18:35:50;;;;;;;82.70;26.50;;;;;;;19.03;48.39;96861.59;10508695;28;20068;-60
2022/03/03 18:41:10;;;;;;;70.05;23.92;;;;;;;19.02;47.83;96855.41;10499387;28;20060;-56
2022/03/03 18:46:30;;;;;;;72.05;23.20;;;;;;;19.02;47.43;96860.81;10509097;28;20044;-54
2022/03/03 18:51:51;;;;;;;69.53;22.17;;;;;;;19.01;46.98;96864.63;10511031;28;20064;-55
2022/03/03 18:57:11;;;;;;;66.78;21.77;;;;;;;19.00;46.49;96871.16;10525666;28;20039;-55
2022/03/03 19:02:31;;;;;;;67.35;21.65;;;;;;;18.99;45.83;96866.06;10522133;28;20051;-55
2022/03/03 19:07:51;;;;;;;59.53;19.95;;;;;;;18.98;45.66;96859.09;10521077;28;20456;-55
2022/03/03 19:13:10;;;;;;;61.53;20.77;;;;;;;18.96;45.34;96862.88;10513820;28;20048;-56
2022/03/03 19:18:30;;;;;;;56.22;18.60;;;;;;;18.95;45.18;96869.41;10519428;28;20064;-55
2022/03/03 19:23:49;;;;;;;53.63;19.88;;;;;;;18.94;45.01;96862.41;10517568;28;20056;-55
2022/03/03 19:29:09;;;;;;;50.55;18.13;;;;;;;18.94;44.74;96867.03;10508348;28;20480;-55
2022/03/03 19:34:33;;;;;;;47.28;17.02;;;;;;;18.91;44.62;96873.81;10508602;28;20052;-56
2022/03/03 19:39:53;;;;;;;45.20;17.30;;;;;;;18.91;44.38;96875.75;10510933;28;20170;-56
2022/03/03 19:45:14;;;;;;;41.75;15.57;;;;;;;18.91;44.62;96881.13;10508391;28;20044;-56
2022/03/03 19:50:35;;;;;;;40.17;15.63;;;;;;;18.91;44.83;96889.25;10525004;28;20060;-56
2022/03/03 19:55:58;;;;;;;39.33;15.15;;;;;;;18.89;44.43;96899.56;10530572;28;20044;-57
2022/03/03 20:01:19;;;;;;;37.55;13.90;;;;;;;18.87;44.19;96897.16;10506037;28;20468;-58
2022/03/03 20:06:40;;;;;;;37.85;13.73;;;;;;;18.87;44.02;96899.09;10520518;28;20047;-57
2022/03/03 20:12:00;;;;;;;38.42;13.75;;;;;;;18.86;43.75;96898.28;10517512;28;20423;-57
2022/03/03 20:17:35;;;;;;;36.60;13.20;;;;;;;18.86;44.04;96900.22;10530641;28;20059;-54
2022/03/03 20:22:55;;;;;;;34.70;13.90;;;;;;;18.85;43.56;96910.19;10514446;28;20055;-55
2022/03/03 20:28:14;;;;;;;33.88;13.07;;;;;;;18.84;43.53;96910.53;10521243;28;20548;-55
2022/03/03 20:33:35;;;;;;;34.63;13.13;;;;;;;18.83;43.38;96919.72;10517616;28;20082;-55
2022/03/03 20:38:55;;;;;;;32.78;11.73;;;;;;;18.81;43.45;96920.03;10511888;28;20503;-55
2022/03/03 20:44:16;;;;;;;35.90;12.68;;;;;;;18.81;43.52;96920.03;10506550;28;20060;-54
2022/03/03 20:49:37;;;;;;;33.63;11.90;;;;;;;18.81;43.54;96935.44;10505865;28;20056;-53
2022/03/03 20:55:00;;;;;;;33.20;13.02;;;;;;;18.78;43.11;96934.94;10531932;28;20043;-54
2022/03/03 21:00:20;;;;;;;30.83;12.07;;;;;;;18.78;43.13;96942.25;10524822;28;20056;-56
2022/03/03 21:05:39;;;;;;;24.33;10.68;;;;;;;18.76;42.87;96934.47;10530075;28;20051;-56
2022/03/03 21:10:58;;;;;;;26.30;10.93;;;;;;;18.76;42.63;96945.25;10533854;28;20067;-56
2022/03/03 21:16:18;;;;;;;28.42;10.85;;;;;;;18.75;42.39;96937.47;10525069;28;20049;-57
2022/03/03 21:21:38;;;;;;;24.05;10.15;;;;;;;18.74;42.39;96942.06;10530582;28;20064;-56
2022/03/03 21:26:58;;;;;;;22.60;9.98;;;;;;;18.74;42.22;96941.28;10527163;28;20051;-56
2022/03/03 21:32:17;;;;;;;22.33;9.77;;;;;;;18.75;42.13;96940.94;10526250;28;20476;-57
2022/03/03 21:37:38;;;;;;;23.42;10.32;;;;;;;18.74;41.83;96938.59;10531941;28;20055;-57
2022/03/03 21:42:58;;;;;;;20.13;9.35;;;;;;;18.76;41.65;96949.88;10523570;28;20521;-56
2022/03/03 21:48:17;;;;;;;19.33;8.57;;;;;;;18.77;41.69;96936.03;10509255;28;20040;-57
2022/03/03 21:53:39;;;;;;;20.23;9.43;;;;;;;18.78;41.65;96939.53;10505162;28;20116;-56
2022/03/03 21:58:59;;;;;;;21.33;8.85;;;;;;;18.80;41.43;96944.63;10532320;28;20047;-56
2022/03/03 22:04:19;;;;;;;21.27;9.23;;;;;;;18.80;41.21;96936.53;10505960;28;20055;-56
2022/03/03 22:09:39;;;;;;;20.67;9.45;;;;;;;18.80;41.17;96940.06;10506446;28;20083;-56
2022/03/03 22:14:59;;;;;;;19.15;8.73;;;;;;;18.81;41.19;96954.34;10513207;28;20052;-56
2022/03/03 22:20:19;;;;;;;18.27;8.73;;;;;;;18.80;41.22;96940.06;10515585;28;20055;-56
2022/03/03 22:25:38;;;;;;;20.02;8.65;;;;;;;18.81;40.96;96936.22;10500997;28;20093;-57
2022/03/03 22:30:58;;;;;;;18.60;8.30;;;;;;;18.80;40.96;96937.34;10515868;28;20040;-56
2022/03/03 22:36:17;;;;;;;16.27;7.65;;;;;;;18.81;40.79;96932.75;10515030;28;20044;-56
2022/03/03 22:41:37;;;;;;;18.85;8.70;;;;;;;18.80;40.78;96931.97;10510255;28;20071;-56
2022/03/03 22:46:57;;;;;;;16.40;8.23;;;;;;;18.80;40.52;96926.56;10520439;28;20040;-56
2022/03/03 22:52:17;;;;;;;15.30;7.85;;;;;;;18.78;40.60;96934.94;10520088;28;20048;-56
2022/03/03 22:57:36;;;;;;;17.02;7.63;;;;;;;18.78;40.33;96929.53;10538358;28;20050;-57
2022/03/03 23:08:34;;;;;;;14.50;7.22;;;;;;;18.77;40.05;96930.63;10518342;28;20045;-56
2022/03/03 23:13:53;;;;;;;16.95;7.78;;;;;;;18.77;40.13;96929.84;10518358;28;20060;-56
2022/03/03 23:19:13;;;;;;;12.25;7.00;;;;;;;18.76;39.98;96937.16;10523605;28;20453;-56
2022/03/03 23:24:32;;;;;;;14.93;7.43;;;;;;;18.76;39.91;96934.47;10498630;28;20052;-57
2022/03/03 23:29:53;;;;;;;13.93;7.05;;;;;;;18.75;39.85;96930.16;10531974;28;20037;-56
2022/03/03 23:35:13;;;;;;;13.45;7.03;;;;;;;18.74;40.01;96928.59;10530845;28;20069;-56
2022/03/03 23:40:33;;;;;;;13.10;6.97;;;;;;;18.75;39.68;96932.84;10514735;28;20431;-56
2022/03/03 23:45:54;;;;;;;12.20;7.13;;;;;;;18.72;39.91;96940.81;10512964;28;20044;-56
2022/03/03 23:51:13;;;;;;;11.38;6.68;;;;;;;18.73;39.64;96940.47;10518276;28;20082;-56
2022/03/03 23:56:35;;;;;;;14.90;7.07;;;;;;;18.71;39.67;96934.59;10513192;28;20050;-56
